createdAt,value
2022-09-22T00:01:29.046Z,11.38
2022-09-22T00:03:58.813Z,8.90
2022-09-22T00:06:35.243Z,10.35
2022-09-22T00:09:03.503Z,9.65
2022-09-22T00:11:33.714Z,11.60
2022-09-22T00:14:07.999Z,11.40
2022-09-22T00:16:41.172Z,12.70
2022-09-22T00:19:15.049Z,12.55
2022-09-22T00:21:42.398Z,17.60
2022-09-22T00:24:09.484Z,16.23
2022-09-22T00:26:38.347Z,19.15
2022-09-22T00:29:09.599Z,21.02
2022-09-22T00:31:42.143Z,21.17
2022-09-22T00:34:15.298Z,18.70
2022-09-22T00:36:42.840Z,23.85
2022-09-22T00:39:10.016Z,20.80
2022-09-22T00:41:41.003Z,22.55
2022-09-22T00:44:26.755Z,18.75
2022-09-22T00:46:59.613Z,19.58
2022-09-22T00:49:38.506Z,18.48
2022-09-22T00:52:06.080Z,13.50
2022-09-22T00:54:34.435Z,12.18
2022-09-22T00:57:24.327Z,10.25
2022-09-22T00:59:52.784Z,11.60
2022-09-22T01:02:21.383Z,12.38
2022-09-22T01:04:52.221Z,14.00
2022-09-22T01:09:50.556Z,14.30
2022-09-22T01:12:17.699Z,12.98
2022-09-22T01:15:12.568Z,14.13
2022-09-22T01:17:39.512Z,12.73
2022-09-22T01:20:18.827Z,13.18
2022-09-22T01:23:00.815Z,15.52
2022-09-22T01:26:06.351Z,15.20
2022-09-22T01:29:17.886Z,13.02
2022-09-22T01:32:05.296Z,14.40
2022-09-22T01:34:50.609Z,15.90
2022-09-22T01:37:52.289Z,15.77
2022-09-22T01:40:28.135Z,17.02
2022-09-22T01:43:22.041Z,15.38
2022-09-22T01:45:49.828Z,17.40
2022-09-22T01:48:31.162Z,15.85
2022-09-22T01:51:08.822Z,16.38
2022-09-22T01:53:43.273Z,18.05
2022-09-22T01:56:13.265Z,18.50
2022-09-22T01:58:54.764Z,18.27
2022-09-22T02:01:27.574Z,18.20
2022-09-22T02:03:57.425Z,18.77
2022-09-22T02:06:31.371Z,18.40
2022-09-22T02:09:11.954Z,19.20
2022-09-22T02:11:40.275Z,19.85
2022-09-22T02:14:07.352Z,19.85
2022-09-22T02:16:35.222Z,19.95
2022-09-22T02:19:17.697Z,21.73
2022-09-22T02:21:47.210Z,20.77
2022-09-22T02:24:44.468Z,21.70
2022-09-22T02:27:26.715Z,21.77
2022-09-22T02:29:59.211Z,20.02
2022-09-22T02:32:27.518Z,21.77
2022-09-22T02:34:56.003Z,19.35
2022-09-22T02:37:49.930Z,20.80
2022-09-22T02:41:07.823Z,20.90
2022-09-22T02:44:00.170Z,23.10
2022-09-22T02:46:37.815Z,21.75
2022-09-22T02:49:09.882Z,21.23
2022-09-22T02:51:36.925Z,20.65
2022-09-22T02:54:03.919Z,21.67
2022-09-22T02:56:30.863Z,22.00
2022-09-22T02:58:58.601Z,21.00
2022-09-22T03:01:26.380Z,21.00
2022-09-22T03:03:53.886Z,24.25
2022-09-22T03:06:20.803Z,23.85
2022-09-22T03:08:47.875Z,21.10
2022-09-22T03:11:14.853Z,21.10
2022-09-22T03:13:41.805Z,20.90
2022-09-22T03:16:09.577Z,21.65
2022-09-22T03:18:36.566Z,19.88
2022-09-22T03:21:03.714Z,19.40
2022-09-22T03:23:30.661Z,18.77
2022-09-22T03:25:57.726Z,20.92
2022-09-22T03:28:24.778Z,20.02
2022-09-22T03:30:51.747Z,19.83
2022-09-22T03:33:18.828Z,21.95
2022-09-22T03:35:45.726Z,19.45
2022-09-22T03:38:12.934Z,19.85
2022-09-22T03:40:39.929Z,19.08
2022-09-22T03:43:06.906Z,20.52
2022-09-22T03:45:33.867Z,19.67
2022-09-22T03:48:00.855Z,20.63
2022-09-22T03:50:28.663Z,20.73
2022-09-22T03:52:57.319Z,20.48
2022-09-22T03:55:25.684Z,19.23
2022-09-22T03:57:52.783Z,18.63
2022-09-22T04:00:19.871Z,19.85
2022-09-22T04:02:46.855Z,19.30
2022-09-22T04:05:13.799Z,21.88
2022-09-22T04:07:40.768Z,20.95
2022-09-22T04:10:08.646Z,22.40
2022-09-22T04:12:35.631Z,20.27
2022-09-22T04:15:02.474Z,21.25
2022-09-22T04:17:29.456Z,21.65
2022-09-22T04:19:56.569Z,21.40
2022-09-22T04:22:23.676Z,22.23
2022-09-22T04:24:50.653Z,21.65
2022-09-22T04:27:20.360Z,24.60
2022-09-22T04:29:48.307Z,22.40
2022-09-22T04:32:16.524Z,21.75
2022-09-22T04:34:43.514Z,19.48
2022-09-22T04:37:11.999Z,21.73
2022-09-22T04:39:38.932Z,22.33
2022-09-22T04:42:06.363Z,21.40
2022-09-22T04:44:35.228Z,19.92
2022-09-22T04:47:02.617Z,20.52
2022-09-22T04:49:29.538Z,20.65
2022-09-22T04:51:56.512Z,20.63
2022-09-22T04:54:23.510Z,20.02
2022-09-22T04:56:50.428Z,23.25
2022-09-22T04:59:17.299Z,23.25
2022-09-22T05:01:44.340Z,21.90
2022-09-22T05:04:11.338Z,23.55
2022-09-22T05:06:38.760Z,22.55
2022-09-22T05:09:05.811Z,21.77
2022-09-22T05:11:33.124Z,25.85
2022-09-22T05:14:00.330Z,25.23
2022-09-22T05:16:27.411Z,23.90
2022-09-22T05:18:54.425Z,23.70
2022-09-22T05:21:21.314Z,24.73
2022-09-22T05:23:48.241Z,23.63
2022-09-22T05:26:15.179Z,22.65
2022-09-22T05:28:42.054Z,24.15
2022-09-22T05:31:08.990Z,22.00
2022-09-22T05:33:35.947Z,24.13
2022-09-22T05:36:03.893Z,22.10
2022-09-22T05:38:31.319Z,21.13
2022-09-22T05:40:58.281Z,21.85
2022-09-22T05:43:25.158Z,49.28
2022-09-22T05:45:52.158Z,35.90
2022-09-22T05:48:20.054Z,33.20
2022-09-22T05:50:47.204Z,37.15
2022-09-22T05:53:15.066Z,28.00
2022-09-22T05:55:42.012Z,22.58
2022-09-22T05:58:12.806Z,33.20
2022-09-22T06:03:07.809Z,26.20
2022-09-22T06:05:38.045Z,22.38
2022-09-22T06:08:07.589Z,25.05
2022-09-22T06:10:36.717Z,36.78
2022-09-22T06:13:09.186Z,27.45
2022-09-22T06:15:36.691Z,45.70
2022-09-22T06:18:11.833Z,28.67
2022-09-22T06:20:42.464Z,36.00
2022-09-22T06:23:09.452Z,21.48
2022-09-22T06:25:36.403Z,23.35
2022-09-22T06:28:09.164Z,24.15
2022-09-22T06:30:40.492Z,24.55
2022-09-22T06:33:09.184Z,21.98
2022-09-22T06:35:38.996Z,19.50
2022-09-22T06:38:07.738Z,20.75
2022-09-22T06:40:38.569Z,20.75
2022-09-22T06:43:12.364Z,19.63
2022-09-22T06:45:40.025Z,24.35
2022-09-22T06:48:10.055Z,19.50
2022-09-22T06:50:38.466Z,22.60
2022-09-22T06:53:11.693Z,73.13
2022-09-22T06:55:41.862Z,30.75
2022-09-22T06:58:09.508Z,26.02
2022-09-22T07:00:36.686Z,26.20
2022-09-22T07:03:13.926Z,26.08
2022-09-22T07:05:40.923Z,21.20
2022-09-22T07:08:09.198Z,22.65
2022-09-22T07:10:39.120Z,24.50
2022-09-22T07:13:06.472Z,22.80
2022-09-22T07:15:35.772Z,24.88
2022-09-22T07:18:03.717Z,22.67
2022-09-22T07:20:30.858Z,19.15
2022-09-22T07:23:01.054Z,16.92
2022-09-22T07:25:29.334Z,17.48
2022-09-22T07:27:59.506Z,18.23
2022-09-22T07:30:26.619Z,17.58
2022-09-22T07:32:53.632Z,18.38
2022-09-22T07:35:20.583Z,16.33
2022-09-22T07:37:47.548Z,16.20
2022-09-22T07:40:14.989Z,18.17
2022-09-22T07:42:41.928Z,13.68
2022-09-22T07:45:13.117Z,14.55
2022-09-22T07:47:59.122Z,14.00
2022-09-22T07:50:26.480Z,14.50
2022-09-22T07:52:54.458Z,14.18
2022-09-22T07:55:25.371Z,14.70
2022-09-22T07:58:00.702Z,13.88
2022-09-22T08:00:33.528Z,16.75
2022-09-22T08:03:01.632Z,17.23
2022-09-22T08:05:29.750Z,14.90
2022-09-22T08:08:02.538Z,13.15
2022-09-22T08:10:32.706Z,14.88
2022-09-22T08:13:00.515Z,14.25
2022-09-22T08:15:27.659Z,16.27
2022-09-22T08:17:58.629Z,15.60
2022-09-22T08:20:30.049Z,14.93
2022-09-22T08:23:03.454Z,16.08
2022-09-22T08:25:30.798Z,18.23
2022-09-22T08:27:57.979Z,19.48
2022-09-22T08:30:24.982Z,17.63
2022-09-22T08:32:52.306Z,17.45
2022-09-22T08:35:19.241Z,16.27
2022-09-22T08:37:49.578Z,15.88
2022-09-22T08:40:24.077Z,16.05
2022-09-22T08:42:55.797Z,16.65
2022-09-22T08:45:35.684Z,15.63
2022-09-22T08:48:40.379Z,15.45
2022-09-22T08:51:58.396Z,15.27
2022-09-22T08:54:34.864Z,14.75
2022-09-22T08:57:21.579Z,15.43
2022-09-22T08:59:55.148Z,13.73
2022-09-22T09:02:32.826Z,13.38
2022-09-22T09:05:23.792Z,15.05
2022-09-22T09:10:54.563Z,12.18
2022-09-22T09:13:21.447Z,10.97
2022-09-22T09:16:05.277Z,11.27
2022-09-22T09:18:34.299Z,12.82
2022-09-22T09:21:06.916Z,13.27
2022-09-22T09:26:33.183Z,12.10
2022-09-22T09:29:07.517Z,12.15
2022-09-22T09:31:54.860Z,11.23
2022-09-22T09:34:25.485Z,11.32
2022-09-22T09:36:58.861Z,9.70
2022-09-22T09:39:35.030Z,9.93
2022-09-22T09:42:07.190Z,6.72
2022-09-22T09:44:40.335Z,6.95
2022-09-22T09:47:22.569Z,7.32
2022-09-22T09:49:52.986Z,6.93
2022-09-22T09:52:20.562Z,6.20
2022-09-22T09:54:47.934Z,4.75
2022-09-22T09:57:16.133Z,4.22
2022-09-22T10:00:06.334Z,4.45
2022-09-22T10:02:59.193Z,4.97
2022-09-22T10:05:27.580Z,4.10
2022-09-22T10:07:58.682Z,3.80
2022-09-22T10:10:41.477Z,2.95
2022-09-22T10:13:08.367Z,3.65
2022-09-22T10:15:39.869Z,3.15
2022-09-22T10:18:25.140Z,2.97
2022-09-22T10:21:19.879Z,3.17
2022-09-22T10:23:53.996Z,3.22
2022-09-22T10:26:30.644Z,4.30
2022-09-22T10:29:06.790Z,7.07
2022-09-22T10:31:35.927Z,6.88
2022-09-22T10:34:02.925Z,4.22
2022-09-22T10:36:31.334Z,4.53
2022-09-22T10:38:59.844Z,3.42
2022-09-22T10:41:34.340Z,2.65
2022-09-22T10:44:37.458Z,2.10
2022-09-22T10:47:26.916Z,2.53
2022-09-22T10:50:31.860Z,2.92
2022-09-22T10:53:07.320Z,2.40
2022-09-22T10:55:56.214Z,2.58
2022-09-22T10:58:43.190Z,2.67
2022-09-22T11:01:42.219Z,3.63
2022-09-22T11:04:30.723Z,2.65
2022-09-22T11:07:26.786Z,2.30
2022-09-22T11:10:40.915Z,1.92
2022-09-22T11:13:49.139Z,1.67
2022-09-22T11:16:42.524Z,1.52
2022-09-22T11:19:26.025Z,1.35
2022-09-22T11:22:10.589Z,1.52
2022-09-22T11:24:56.303Z,1.55
2022-09-22T11:27:36.814Z,1.70
2022-09-22T11:30:23.332Z,1.48
2022-09-22T11:33:17.693Z,4.78
2022-09-22T11:35:56.373Z,2.30
2022-09-22T11:38:41.646Z,2.15
2022-09-22T11:41:26.173Z,1.73
2022-09-22T11:44:32.479Z,1.30
2022-09-22T11:47:20.878Z,1.65
2022-09-22T11:50:05.434Z,1.85
2022-09-22T11:52:44.046Z,2.08
2022-09-22T11:55:23.846Z,2.28
2022-09-22T11:57:57.221Z,2.22
2022-09-22T12:00:24.495Z,2.22
2022-09-22T12:03:02.156Z,2.10
2022-09-22T12:05:42.533Z,2.20
2022-09-22T12:08:21.528Z,1.80
2022-09-22T12:10:50.425Z,1.92
2022-09-22T12:13:21.724Z,1.80
2022-09-22T12:16:31.281Z,1.30
2022-09-22T12:19:25.534Z,1.15
2022-09-22T12:22:05.800Z,1.10
2022-09-22T12:24:33.508Z,1.05
2022-09-22T12:27:11.318Z,0.95
2022-09-22T12:29:39.239Z,1.52
2022-09-22T12:32:06.507Z,1.50
2022-09-22T12:34:39.511Z,1.48
2022-09-22T12:37:27.288Z,1.52
2022-09-22T12:39:54.626Z,1.52
2022-09-22T12:42:34.657Z,1.15
2022-09-22T12:45:18.174Z,2.40
2022-09-22T12:47:51.678Z,2.00
2022-09-22T12:50:24.553Z,1.98
2022-09-22T12:52:51.464Z,13.32
2022-09-22T12:55:30.431Z,16.48
2022-09-22T12:58:02.817Z,6.00
2022-09-22T13:00:41.129Z,3.35
2022-09-22T13:03:26.442Z,5.97
2022-09-22T13:06:05.303Z,6.68
2022-09-22T13:08:32.202Z,3.08
2022-09-22T13:11:00.563Z,2.35
2022-09-22T13:13:31.237Z,2.33
2022-09-22T13:16:00.984Z,2.92
2022-09-22T13:18:40.117Z,2.40
2022-09-22T13:21:13.284Z,5.45
2022-09-22T13:23:53.137Z,3.55
2022-09-22T13:26:34.807Z,2.40
2022-09-22T13:29:18.259Z,2.67
2022-09-22T13:31:51.395Z,4.47
2022-09-22T13:34:32.354Z,3.13
2022-09-22T13:37:08.228Z,7.47
2022-09-22T13:39:42.273Z,5.13
2022-09-22T13:42:24.434Z,3.35
2022-09-22T13:45:30.589Z,2.70
2022-09-22T13:48:14.006Z,2.50
2022-09-22T13:51:05.926Z,2.78
2022-09-22T13:53:33.021Z,2.70
2022-09-22T13:56:00.240Z,2.65
2022-09-22T13:58:40.264Z,5.18
2022-09-22T14:01:19.960Z,4.13
2022-09-22T14:03:48.734Z,4.03
2022-09-22T14:06:18.713Z,3.55
2022-09-22T14:08:48.477Z,3.37
2022-09-22T14:11:24.793Z,3.45
2022-09-22T14:13:55.214Z,3.10
2022-09-22T14:16:42.672Z,2.83
2022-09-22T14:19:15.185Z,2.80
2022-09-22T14:21:56.390Z,3.50
2022-09-22T14:24:24.268Z,6.15
2022-09-22T14:27:04.701Z,5.32
2022-09-22T14:29:34.884Z,5.22
2022-09-22T14:32:22.685Z,9.70
2022-09-22T14:34:52.534Z,4.22
2022-09-22T14:37:26.904Z,3.10
2022-09-22T14:39:56.033Z,2.83
2022-09-22T14:42:29.707Z,3.30
2022-09-22T14:45:27.703Z,3.78
2022-09-22T14:48:18.555Z,3.47
2022-09-22T14:50:47.662Z,4.63
2022-09-22T14:53:23.296Z,3.83
2022-09-22T14:55:53.922Z,5.47
2022-09-22T14:58:28.049Z,5.07
2022-09-22T15:01:24.244Z,5.43
2022-09-22T15:04:03.053Z,8.20
2022-09-22T15:06:38.321Z,4.60
2022-09-22T15:09:06.627Z,4.63
2022-09-22T15:11:48.902Z,4.15
2022-09-22T15:14:34.466Z,4.55
2022-09-22T15:17:20.876Z,3.83
2022-09-22T15:19:59.586Z,3.65
2022-09-22T15:22:27.917Z,5.35
2022-09-22T15:24:54.854Z,3.72
2022-09-22T15:27:21.942Z,3.00
2022-09-22T15:29:50.016Z,3.67
2022-09-22T15:32:16.939Z,3.35
2022-09-22T15:34:45.543Z,3.65
2022-09-22T15:37:20.847Z,3.80
2022-09-22T15:39:47.789Z,3.95
2022-09-22T15:42:14.897Z,4.30
2022-09-22T15:44:41.897Z,3.85
2022-09-22T15:47:17.329Z,4.45
2022-09-22T15:49:45.372Z,3.85
2022-09-22T15:52:12.336Z,3.63
2022-09-22T15:54:39.249Z,3.83
2022-09-22T15:57:06.708Z,4.22
2022-09-22T15:59:34.042Z,4.20
2022-09-22T16:02:02.114Z,4.63
2022-09-22T16:04:34.451Z,6.65
2022-09-22T16:07:08.670Z,6.18
2022-09-22T16:09:35.900Z,6.35
2022-09-22T16:12:03.609Z,6.90
2022-09-22T16:14:30.588Z,8.10
2022-09-22T16:16:57.555Z,11.70
2022-09-22T16:19:24.485Z,12.50
2022-09-22T16:21:54.705Z,11.68
2022-09-22T16:24:22.952Z,13.52
2022-09-22T16:26:52.013Z,10.80
2022-09-22T16:29:19.024Z,16.35
2022-09-22T16:31:46.230Z,28.30
2022-09-22T16:34:13.205Z,28.60
2022-09-22T16:36:42.068Z,12.45
2022-09-22T16:39:09.152Z,8.18
2022-09-22T16:41:37.111Z,7.18
2022-09-22T16:44:05.341Z,7.45
2022-09-22T16:46:38.199Z,8.43
2022-09-22T16:49:08.456Z,7.95
2022-09-22T16:51:40.417Z,6.60
2022-09-22T16:54:14.026Z,8.45
2022-09-22T16:56:46.536Z,14.80
2022-09-22T16:59:19.143Z,21.27
2022-09-22T17:01:46.738Z,16.58
2022-09-22T17:04:19.400Z,15.05
2022-09-22T17:06:47.335Z,10.25
2022-09-22T17:09:15.011Z,10.05
2022-09-22T17:11:45.611Z,12.43
2022-09-22T17:14:15.847Z,10.27
2022-09-22T17:16:52.304Z,11.65
2022-09-22T17:19:26.266Z,7.55
2022-09-22T17:21:55.738Z,17.08
2022-09-22T17:24:24.265Z,25.88
2022-09-22T17:26:53.683Z,28.13
2022-09-22T17:29:25.355Z,23.40
2022-09-22T17:32:00.210Z,32.30
2022-09-22T17:34:28.915Z,20.67
2022-09-22T17:36:56.938Z,16.35
2022-09-22T17:39:25.443Z,19.90
2022-09-22T17:41:52.623Z,15.35
2022-09-22T17:44:23.172Z,15.18
2022-09-22T17:47:10.673Z,14.55
2022-09-22T17:49:57.332Z,14.93
2022-09-22T17:52:33.546Z,12.55
2022-09-22T17:55:09.523Z,15.93
2022-09-22T17:57:42.115Z,15.80
2022-09-22T18:00:16.138Z,20.88
2022-09-22T18:02:43.933Z,23.80
2022-09-22T18:05:16.565Z,29.77
2022-09-22T18:07:44.064Z,30.52
2022-09-22T18:10:16.977Z,32.85
2022-09-22T18:12:44.558Z,35.15
2022-09-22T18:15:13.613Z,31.92
2022-09-22T18:17:42.307Z,52.17
2022-09-22T18:20:21.101Z,31.27
2022-09-22T18:22:49.512Z,35.13
2022-09-22T18:25:19.735Z,32.15
2022-09-22T18:27:48.777Z,31.83
2022-09-22T18:30:17.970Z,28.02
2022-09-22T18:32:44.988Z,25.75
2022-09-22T18:35:13.147Z,24.33
2022-09-22T18:37:40.614Z,24.80
2022-09-22T18:40:09.275Z,24.77
2022-09-22T18:42:37.022Z,24.33
2022-09-22T18:45:04.677Z,22.40
2022-09-22T18:47:31.636Z,24.27
2022-09-22T18:49:59.060Z,23.73
2022-09-22T18:52:26.048Z,23.00
2022-09-22T18:54:54.526Z,19.65
2022-09-22T18:57:23.771Z,21.48
2022-09-22T18:59:51.427Z,21.65
2022-09-22T19:02:23.264Z,20.58
2022-09-22T19:04:51.963Z,24.60
2022-09-22T19:07:42.006Z,17.25
2022-09-22T19:10:11.963Z,14.90
2022-09-22T19:12:41.891Z,17.30
2022-09-22T19:15:13.881Z,17.00
2022-09-22T19:17:45.738Z,16.77
2022-09-22T19:20:17.562Z,19.25
2022-09-22T19:22:45.175Z,19.10
2022-09-22T19:25:12.743Z,18.00
2022-09-22T19:27:43.035Z,15.27
2022-09-22T19:30:11.661Z,15.48
2022-09-22T19:32:39.663Z,12.88
2022-09-22T19:35:07.777Z,14.00
2022-09-22T19:37:34.948Z,11.75
2022-09-22T19:40:02.135Z,12.32
2022-09-22T19:42:29.387Z,11.70
2022-09-22T19:44:56.340Z,12.25
2022-09-22T19:47:24.105Z,12.23
2022-09-22T19:49:51.255Z,12.02
2022-09-22T19:52:18.339Z,12.10
2022-09-22T19:54:45.338Z,12.25
2022-09-22T19:57:13.484Z,11.27
2022-09-22T19:59:40.868Z,11.77
2022-09-22T20:02:15.331Z,12.95
2022-09-22T20:04:42.684Z,10.63
2022-09-22T20:07:11.206Z,10.13
2022-09-22T20:09:38.493Z,10.65
2022-09-22T20:12:06.075Z,10.95
2022-09-22T20:14:33.696Z,11.00
2022-09-22T20:17:03.639Z,14.15
2022-09-22T20:19:32.807Z,18.60
2022-09-22T20:22:28.685Z,15.40
2022-09-22T20:25:00.768Z,16.40
2022-09-22T20:27:33.494Z,19.35
2022-09-22T20:30:01.107Z,18.48
2022-09-22T20:32:32.400Z,17.35
2022-09-22T20:34:59.556Z,18.10
2022-09-22T20:37:26.595Z,17.67
2022-09-22T20:39:53.722Z,14.23
2022-09-22T20:42:20.894Z,14.55
2022-09-22T20:44:48.848Z,14.30
2022-09-22T20:47:18.335Z,12.68
2022-09-22T20:49:49.420Z,13.57
2022-09-22T20:52:20.478Z,13.40
2022-09-22T20:54:48.689Z,13.82
2022-09-22T20:57:15.904Z,13.48
2022-09-22T20:59:46.286Z,12.85
2022-09-22T21:02:14.900Z,12.40
2022-09-22T21:04:42.090Z,12.02
2022-09-22T21:07:09.761Z,12.23
2022-09-22T21:09:55.653Z,11.18
2022-09-22T21:12:28.589Z,10.35
2022-09-22T21:14:57.919Z,10.30
2022-09-22T21:17:25.594Z,9.48
2022-09-22T21:19:52.570Z,10.68
2022-09-22T21:22:19.757Z,9.95
2022-09-22T21:24:49.071Z,10.48
2022-09-22T21:27:16.177Z,9.70
2022-09-22T21:29:43.156Z,10.35
2022-09-22T21:32:10.308Z,10.98
2022-09-22T21:34:37.269Z,12.10
2022-09-22T21:37:05.345Z,12.07
2022-09-22T21:39:32.263Z,11.13
2022-09-22T21:41:59.270Z,11.18
2022-09-22T21:44:26.407Z,9.75
2022-09-22T21:46:54.582Z,10.43
2022-09-22T21:49:21.586Z,13.10
2022-09-22T21:51:48.760Z,22.17
2022-09-22T21:54:18.433Z,24.08
2022-09-22T21:56:46.182Z,21.67
2022-09-22T21:59:13.733Z,22.60
2022-09-22T22:01:46.869Z,17.95
2022-09-22T22:04:15.448Z,17.15
2022-09-22T22:06:44.641Z,13.05
2022-09-22T22:09:18.054Z,12.07
2022-09-22T22:11:53.642Z,12.50
2022-09-22T22:14:21.585Z,10.52
2022-09-22T22:16:50.978Z,10.77
2022-09-22T22:19:20.747Z,8.55
2022-09-22T22:21:50.556Z,9.43
2022-09-22T22:24:31.984Z,10.15
2022-09-22T22:27:01.952Z,10.98
2022-09-22T22:29:32.151Z,11.37
2022-09-22T22:31:59.537Z,10.68
2022-09-22T22:34:26.601Z,9.15
2022-09-22T22:36:55.379Z,8.88
2022-09-22T22:39:22.646Z,9.55
2022-09-22T22:41:49.630Z,8.93
2022-09-22T22:44:18.165Z,8.90
2022-09-22T22:46:45.787Z,9.27
2022-09-22T22:49:13.048Z,8.55
2022-09-22T22:51:40.603Z,9.52
2022-09-22T22:54:07.748Z,8.20
2022-09-22T22:56:34.773Z,9.73
2022-09-22T22:59:01.906Z,10.15
2022-09-22T23:01:31.250Z,9.55
2022-09-22T23:04:00.755Z,10.90
2022-09-22T23:06:36.408Z,10.40
2022-09-22T23:09:05.537Z,10.10
2022-09-22T23:11:37.693Z,9.98
2022-09-22T23:14:07.049Z,10.27
2022-09-22T23:16:39.193Z,10.40
2022-09-22T23:19:08.847Z,10.90
2022-09-22T23:21:36.832Z,10.50
2022-09-22T23:24:05.511Z,11.43
2022-09-22T23:26:32.706Z,11.77
2022-09-22T23:29:00.324Z,12.15
2022-09-22T23:31:28.245Z,10.88
2022-09-22T23:33:55.322Z,11.15
2022-09-22T23:36:27.139Z,11.45
2022-09-22T23:39:04.506Z,12.27
2022-09-22T23:41:34.174Z,11.88
2022-09-22T23:44:01.404Z,11.93
2022-09-22T23:46:28.361Z,11.70
2022-09-22T23:48:55.908Z,11.57
2022-09-22T23:51:23.403Z,11.23
2022-09-22T23:53:50.499Z,11.45
2022-09-22T23:56:17.586Z,12.35
2022-09-22T23:58:46.884Z,11.45
